createdAt,value
2018-12-29T00:02:22.084Z,101406.43
2018-12-29T00:07:26.218Z,101412.20
2018-12-29T00:12:30.306Z,101417.11
2018-12-29T00:17:34.376Z,101417.11
2018-12-29T00:22:38.616Z,101422.92
2018-12-29T00:27:42.771Z,101417.45
2018-12-29T00:32:46.937Z,101428.22
2018-12-29T00:37:50.971Z,101430.43
2018-12-29T00:42:55.054Z,101430.43
2018-12-29T00:47:59.139Z,101435.64
2018-12-29T00:53:03.175Z,101438.42
2018-12-29T00:58:07.439Z,101433.37
2018-12-29T01:03:11.617Z,101433.37
2018-12-29T01:08:15.751Z,101432.03
2018-12-29T01:13:20.018Z,101426.57
2018-12-29T01:18:24.093Z,101426.57
2018-12-29T01:23:28.227Z,101426.41
2018-12-29T01:28:32.343Z,101424.19
2018-12-29T01:33:36.393Z,101424.19
2018-12-29T01:38:40.459Z,101402.96
2018-12-29T01:43:44.582Z,101407.04
2018-12-29T01:48:48.661Z,101409.73
2018-12-29T01:53:52.798Z,101409.73
2018-12-29T01:58:56.824Z,101387.20
2018-12-29T02:04:00.869Z,101406.87
2018-12-29T02:09:05.737Z,101405.52
2018-12-29T02:14:09.773Z,101410.52
2018-12-29T02:19:13.952Z,101407.73
2018-12-29T02:24:17.993Z,101405.52
2018-12-29T02:29:22.213Z,101381.61
2018-12-29T02:34:26.415Z,101392.45
2018-12-29T02:39:30.593Z,101395.63
2018-12-29T02:44:34.870Z,101395.63
2018-12-29T02:49:39.032Z,101390.19
2018-12-29T02:54:43.052Z,101389.72
2018-12-29T02:59:47.264Z,101377.61
2018-12-29T03:04:51.447Z,101377.21
2018-12-29T03:09:55.697Z,101370.92
2018-12-29T03:14:59.729Z,101375.39
2018-12-29T03:20:04.047Z,101373.62
2018-12-29T03:25:08.205Z,101372.75
2018-12-29T03:30:12.333Z,101373.23
2018-12-29T03:35:16.487Z,101369.67
2018-12-29T03:40:20.650Z,101365.55
2018-12-29T03:45:24.785Z,101365.55
2018-12-29T03:50:29.114Z,101361.12
2018-12-29T03:55:33.183Z,101356.13
2018-12-29T04:00:37.348Z,101341.19
2018-12-29T04:05:41.372Z,101343.06
2018-12-29T04:10:45.497Z,101341.24
2018-12-29T04:15:57.644Z,101353.86
2018-12-29T04:20:55.452Z,101355.20
2018-12-29T04:25:59.515Z,101339.03
2018-12-29T04:31:03.526Z,101350.21
2018-12-29T04:36:07.576Z,101356.94
2018-12-29T04:41:11.589Z,101344.33
2018-12-29T04:46:15.607Z,101359.63
2018-12-29T04:51:19.631Z,101358.28
2018-12-29T04:56:23.766Z,101342.98
2018-12-29T05:01:27.811Z,101360.50
2018-12-29T05:06:32.067Z,101360.98
2018-12-29T05:11:36.105Z,101358.20
2018-12-29T05:16:40.142Z,101350.61
2018-12-29T05:21:44.270Z,101369.67
2018-12-29T05:26:48.294Z,101373.88
2018-12-29T05:31:52.524Z,101373.62
2018-12-29T05:36:56.680Z,101371.02
2018-12-29T05:42:00.697Z,101371.02
2018-12-29T05:47:04.720Z,101379.22
2018-12-29T05:52:08.764Z,101382.25
2018-12-29T05:57:12.918Z,101382.25
2018-12-29T06:02:16.994Z,101379.92
2018-12-29T06:07:21.026Z,101376.27
2018-12-29T06:12:25.093Z,101381.33
2018-12-29T06:17:29.124Z,101381.33
2018-12-29T06:22:33.171Z,101371.58
2018-12-29T06:27:37.340Z,101371.58
2018-12-29T06:32:41.388Z,101397.70
2018-12-29T06:37:45.416Z,101391.41
2018-12-29T06:42:49.458Z,101391.41
2018-12-29T06:47:53.559Z,101390.97
2018-12-29T06:52:57.567Z,101384.17
2018-12-29T06:58:01.576Z,101403.73
2018-12-29T07:03:05.678Z,101408.81
2018-12-29T07:08:09.704Z,101411.63
2018-12-29T07:13:13.924Z,101408.08
2018-12-29T07:18:17.939Z,101408.08
2018-12-29T07:23:22.015Z,101417.70
2018-12-29T07:28:26.116Z,101425.57
2018-12-29T07:33:30.248Z,101423.02
2018-12-29T07:38:34.298Z,101417.94
2018-12-29T07:43:38.398Z,101420.45
2018-12-29T07:48:46.931Z,101420.45
2018-12-29T07:53:52.227Z,101429.22
2018-12-29T07:58:56.518Z,101435.23
2018-12-29T08:04:05.407Z,101435.23
2018-12-29T08:09:09.523Z,101422.61
2018-12-29T08:14:13.571Z,101420.56
2018-12-29T08:19:17.587Z,101422.43
2018-12-29T08:24:24.793Z,101422.59
2018-12-29T08:29:30.786Z,101409.61
2018-12-29T08:34:37.260Z,101409.61
2018-12-29T08:39:41.274Z,101426.33
2018-12-29T08:44:45.336Z,101439.04
2018-12-29T08:49:49.670Z,101439.06
2018-12-29T08:54:53.690Z,101435.45
2018-12-29T08:59:57.712Z,101437.80
2018-12-29T09:05:01.778Z,101441.90
2018-12-29T09:10:06.405Z,101441.90
2018-12-29T09:15:10.491Z,101451.03
2018-12-29T09:20:14.535Z,101452.41
2018-12-29T09:25:18.596Z,101447.75
2018-12-29T09:30:22.717Z,101444.88
2018-12-29T09:35:26.747Z,101452.59
2018-12-29T09:40:30.842Z,101434.23
2018-12-29T09:45:34.974Z,101434.23
2018-12-29T09:50:39.007Z,101450.83
2018-12-29T09:55:43.111Z,101444.72
2018-12-29T10:00:47.136Z,101423.73
2018-12-29T10:05:51.171Z,101421.77
2018-12-29T10:10:55.303Z,101428.20
2018-12-29T10:15:59.437Z,101421.87
2018-12-29T10:21:03.535Z,101416.63
2018-12-29T10:26:07.564Z,101416.63
2018-12-29T10:31:11.607Z,101404.63
2018-12-29T10:36:15.731Z,101397.25
2018-12-29T10:41:19.765Z,101371.31
2018-12-29T10:46:23.829Z,101385.36
2018-12-29T10:51:27.867Z,101385.36
2018-12-29T10:56:31.948Z,101354.39
2018-12-29T11:01:35.977Z,101352.48
2018-12-29T11:06:40.025Z,101344.98
2018-12-29T11:11:44.094Z,101342.52
2018-12-29T11:16:49.431Z,101342.52
2018-12-29T11:21:53.462Z,101325.37
2018-12-29T11:26:57.538Z,101323.89
2018-12-29T11:32:01.570Z,101321.12
2018-12-29T11:37:05.593Z,101313.95
2018-12-29T11:42:09.630Z,101308.53
2018-12-29T11:47:13.663Z,101304.80
2018-12-29T11:52:17.737Z,101299.85
2018-12-29T11:57:21.754Z,101299.85
2018-12-29T12:02:25.766Z,101276.14
2018-12-29T12:07:29.795Z,101257.11
2018-12-29T12:12:33.823Z,101266.14
2018-12-29T12:17:37.852Z,101271.07
2018-12-29T12:22:41.973Z,101258.51
2018-12-29T12:27:45.998Z,101258.51
2018-12-29T12:32:50.133Z,101248.88
2018-12-29T12:37:54.160Z,101240.98
2018-12-29T12:42:58.174Z,101255.49
2018-12-29T12:48:05.121Z,101255.49
2018-12-29T12:53:07.980Z,101220.47
2018-12-29T12:58:12.271Z,101220.47
2018-12-29T13:03:18.402Z,101224.27
2018-12-29T13:08:22.967Z,101224.27
2018-12-29T13:13:27.000Z,101229.47
2018-12-29T13:18:31.302Z,101208.88
2018-12-29T13:23:35.336Z,101218.02
2018-12-29T13:28:39.846Z,101216.33
2018-12-29T13:33:43.870Z,101194.45
2018-12-29T13:38:48.269Z,101205.94
2018-12-29T13:43:52.301Z,101185.22
2018-12-29T13:48:56.724Z,101187.09
2018-12-29T13:54:00.762Z,101200.73
2018-12-29T13:59:05.158Z,101201.95
2018-12-29T14:04:09.195Z,101204.64
2018-12-29T14:09:13.220Z,101215.97
2018-12-29T14:14:17.320Z,101220.05
2018-12-29T14:19:21.327Z,101210.28
2018-12-29T14:24:25.433Z,101224.66
2018-12-29T14:29:29.454Z,101224.20
2018-12-29T14:34:34.977Z,101218.91
2018-12-29T14:39:39.035Z,101202.13
2018-12-29T14:44:43.287Z,101232.97
2018-12-29T14:49:47.289Z,101232.27
2018-12-29T14:54:51.395Z,101211.06
2018-12-29T14:59:55.443Z,101189.55
2018-12-29T15:04:59.466Z,101170.28
2018-12-29T15:10:03.504Z,101171.43
2018-12-29T15:15:07.682Z,101177.36
2018-12-29T15:20:11.712Z,101169.77
2018-12-29T15:25:15.746Z,101169.77
2018-12-29T15:30:20.039Z,101149.89
2018-12-29T15:35:24.054Z,101141.92
2018-12-29T15:40:28.550Z,101148.47
2018-12-29T15:45:32.631Z,101148.47
2018-12-29T15:51:39.087Z,101112.88
2018-12-29T15:55:42.964Z,101117.77
2018-12-29T16:00:54.777Z,101111.53
2018-12-29T16:05:58.953Z,101085.41
2018-12-29T16:11:03.469Z,101095.92
2018-12-29T16:16:07.500Z,101095.92
2018-12-29T16:21:11.593Z,101085.83
2018-12-29T16:26:15.625Z,101056.09
2018-12-29T16:31:21.319Z,101060.42
2018-12-29T16:36:25.345Z,101060.42
2018-12-29T16:41:29.373Z,101055.19
2018-12-29T16:46:33.863Z,101044.05
2018-12-29T16:51:37.896Z,101037.70
2018-12-29T16:56:42.035Z,101024.25
2018-12-29T17:01:46.109Z,101020.06
2018-12-29T17:07:33.722Z,101011.47
2018-12-29T17:12:37.741Z,101009.37
2018-12-29T17:17:42.168Z,101009.64
2018-12-29T17:22:46.273Z,101009.64
2018-12-29T17:27:50.304Z,101011.28
2018-12-29T17:32:54.395Z,100999.61
2018-12-29T17:37:58.833Z,101000.86
2018-12-29T17:43:02.869Z,101024.88
2018-12-29T17:48:06.986Z,101024.88
2018-12-29T17:53:11.362Z,101057.35
2018-12-29T17:58:15.436Z,101057.35
2018-12-29T18:03:19.506Z,101057.83
2018-12-29T18:08:23.977Z,101052.40
2018-12-29T18:13:28.117Z,101046.69
2018-12-29T18:18:32.357Z,101038.81
2018-12-29T18:23:36.466Z,100978.16
2018-12-29T18:28:40.514Z,100989.77
2018-12-29T18:33:46.064Z,100956.77
2018-12-29T18:38:50.122Z,100964.83
2018-12-29T18:43:54.537Z,100935.23
2018-12-29T18:48:58.636Z,100914.54
2018-12-29T18:54:02.691Z,100918.32
2018-12-29T18:59:07.112Z,100881.94
2018-12-29T19:04:11.124Z,100873.05
2018-12-29T19:09:15.267Z,100839.73
2018-12-29T19:14:19.296Z,100840.89
2018-12-29T19:19:23.321Z,100872.05
2018-12-29T19:24:27.427Z,100851.64
2018-12-29T19:29:31.961Z,100844.86
2018-12-29T19:34:36.174Z,100831.70
2018-12-29T19:39:40.649Z,100810.50
2018-12-29T19:44:44.780Z,100798.92
2018-12-29T19:49:53.534Z,100789.03
2018-12-29T19:54:55.043Z,100773.95
2018-12-29T20:00:26.113Z,100758.19
2018-12-29T20:06:00.127Z,100743.78
2018-12-29T20:11:04.399Z,100736.77
2018-12-29T20:16:08.430Z,100730.70
2018-12-29T20:21:12.550Z,100710.63
2018-12-29T20:26:26.437Z,100710.63
2018-12-29T20:31:30.807Z,100713.91
2018-12-29T20:36:34.894Z,100713.91
2018-12-29T20:41:39.434Z,100689.01
2018-12-29T20:46:43.554Z,100663.06
2018-12-29T20:51:47.620Z,100673.17
2018-12-29T20:56:51.774Z,100663.86
2018-12-29T21:01:55.851Z,100651.66
2018-12-29T21:06:59.971Z,100641.92
2018-12-29T21:12:04.144Z,100630.62
2018-12-29T21:17:08.327Z,100620.13
2018-12-29T21:22:12.345Z,100620.13
2018-12-29T21:27:16.376Z,100608.81
2018-12-29T21:32:20.508Z,100608.81
2018-12-29T21:37:24.539Z,100602.64
2018-12-29T21:42:28.670Z,100578.83
2018-12-29T21:47:32.979Z,100558.83
2018-12-29T21:52:37.013Z,100548.55
2018-12-29T21:57:41.193Z,100548.55
2018-12-29T22:02:45.223Z,100546.83
2018-12-29T22:07:49.370Z,100544.03
2018-12-29T22:12:53.414Z,100548.64
2018-12-29T22:17:57.513Z,100526.26
2018-12-29T22:23:01.536Z,100532.32
2018-12-29T22:28:05.565Z,100532.88
2018-12-29T22:33:09.638Z,100532.88
2018-12-29T22:38:13.647Z,100521.14
2018-12-29T22:43:17.902Z,100497.82
2018-12-29T22:48:22.018Z,100504.52
2018-12-29T22:53:26.435Z,100497.72
2018-12-29T22:58:30.458Z,100500.21
2018-12-29T23:03:34.940Z,100500.21
2018-12-29T23:08:38.976Z,100487.70
2018-12-29T23:13:43.595Z,100484.34
2018-12-29T23:18:47.722Z,100484.34
2018-12-29T23:23:51.820Z,100462.62
2018-12-29T23:28:55.966Z,100448.69
2018-12-29T23:34:00.100Z,100447.64
2018-12-29T23:39:05.495Z,100442.31
2018-12-29T23:44:09.649Z,100437.11
2018-12-29T23:49:13.890Z,100443.69
2018-12-29T23:54:18.471Z,100429.74
2018-12-29T23:59:23.034Z,100438.68
